Home > Products > Valid Products > TAF

000
FTUS43 KDDC 180500 RRA
TAFDDC
TAF
KDDC 180540Z 1806/1906 19010KT P6SM BKN030
     FM181500 18020G30KT P6SM SCT250
     FM190200 17017KT P6SM SKC=



000
FTUS43 KDDC 180500 RRA
TAFHYS
TAF
KHYS 180540Z 1806/1906 14007KT P6SM SKC
     FM180800 19010KT P6SM BKN025
     FM181500 18020G30KT P6SM SCT250
     FM190200 17015KT P6SM SKC=



000
FTUS43 KDDC 180500 RRA
TAFGCK
TAF
KGCK 180540Z 1806/1906 17010KT P6SM SKC
     FM180800 19010KT P6SM BKN025
     FM181500 18020G30KT P6SM SCT250
     FM190200 17017KT P6SM SKC=



000
FTUS43 KDDC 172300
TAFGCK
TAF
KGCK 172333Z 1800/1824 17010KT P6SM SKC
     FM180900 19010KT P6SM BKN025
     FM181500 18020G30KT P6SM SCT250=



000
FTUS43 KDDC 172300
TAFDDC
TAF
KDDC 172333Z 1800/1824 16010KT P6SM SKC
     FM180400 19010KT P6SM BKN030
     FM181500 18020G30KT P6SM SCT250=



000
FTUS43 KDDC 172300
TAFHYS
TAF
KHYS 172333Z 1800/1824 14007KT P6SM SKC
     FM180900 19010KT P6SM BKN025
     FM181500 18020G30KT P6SM SCT250=



000
FTUS43 KDDC 171700
TAFHYS
TAF
KHYS 171720Z 1718/1818 13006KT P6SM SCT250
     FM180300 18008KT P6SM SCT250
     FM181600 18020G30KT P6SM SCT250=



000
FTUS43 KDDC 171700
TAFDDC
TAF
KDDC 171720Z 1718/1818 15008KT P6SM SCT250
     FM180700 18008KT P6SM SCT250
     FM181000 19010KT P6SM BKN035
     FM181600 18020G30KT P6SM SCT250=



000
FTUS43 KDDC 171700
TAFGCK
TAF
KGCK 171720Z 1718/1818 15008KT P6SM SCT250
     FM180600 18008KT P6SM SCT250
     FM181100 19010KT P6SM BKN015
     FM181600 18020G30KT P6SM SCT250=



000
FTUS43 KDDC 171600 AAB
TAFGCK
TAF AMD
KGCK 171637Z 1717/1812 07011KT 4SM -RA BR BKN040
     FM171700 14008KT P6SM SCT100=



000
FTUS43 KDDC 171500 AAA
TAFDDC
TAF AMD
KDDC 171520Z 1715/1812 04011KT 3SM -RA BR OVC040
     FM171800 15010KT P6SM SCT100=



000
FTUS43 KDDC 171300 AAA
TAFGCK
TAF AMD
KGCK 171325Z 1713/1812 07011KT 4SM -RA BR BKN040
     FM171600 14008KT P6SM SCT100=



000
FTUS43 KDDC 171300 AAA
TAFDDC
TAF AMD
KDDC 171324Z 1713/1812 04011KT P6SM OVC070
      TEMPO 1713/1716 3SM -RA BR BKN009
     FM171800 15010KT P6SM SCT100=



000
FTUS43 KDDC 171100
TAFDDC
TAF
KDDC 171137Z 1712/1812 04011KT P6SM OVC070
      TEMPO 1712/1716 6SM -RA BR BKN040
     FM171800 15010KT P6SM SCT100=



000
FTUS43 KDDC 171100
TAFGCK
TAF
KGCK 171137Z 1712/1812 07011KT P6SM -RA OVC040
     FM171600 14008KT P6SM SCT100=



000
FTUS43 KDDC 171100
TAFHYS
TAF
KHYS 171137Z 1712/1812 04010KT P6SM BKN150
     FM171700 13008KT P6SM SCT100=



000
FTUS43 KDDC 170700 AAA
TAFGCK
TAF AMD
KGCK 170746Z 1708/1806 06011KT P6SM OVC100
     FM171000 09012KT 6SM -SHRA SCT015 BKN050
     FM171400 13010KT P6SM BKN100=



000
FTUS43 KDDC 170700 AAA
TAFDDC
TAF AMD
KDDC 170745Z 1708/1806 07010KT P6SM OVC100
     FM171100 09010KT P6SM OVC080
     FM171300 12012KT 6SM -SHRA SCT015 BKN050
     FM171700 12009KT P6SM BKN100=



000
FTUS43 KDDC 170500
TAFDDC
TAF
KDDC 170520Z 1706/1806 03015KT P6SM OVC120
     FM170900 03010KT P6SM OVC080
     FM171100 02012KT 6SM -SHRA SCT015 BKN050
     FM171700 09009KT P6SM BKN100=



000
FTUS43 KDDC 170500
TAFGCK
TAF
KGCK 170520Z 1706/1806 01023G30KT P6SM OVC090
     FM170900 02012KT 6SM -SHRA SCT015 BKN050
     FM171400 10010KT P6SM BKN100=



000
FTUS43 KDDC 170500
TAFHYS
TAF
KHYS 170520Z 1706/1806 04012KT P6SM FEW120
     FM170800 04010KT P6SM BKN100
     FM171700 07010KT P6SM BKN100=



000
FTUS43 KDDC 170100 AAA
TAFGCK
TAF AMD
KGCK 170112Z 1701/1724 03015KT P6SM BKN250
     FM170500 03010KT P6SM OVC100
     FM170800 02012KT 5SM -SHRA BKN050
     FM171700 10010KT P6SM SCT100=



000
FTUS43 KDDC 170000 AAA
TAFHYS
TAF AMD
KHYS 170053Z 1701/1724 02015KT P6SM SKC
     FM170800 04010KT P6SM BKN100
     FM171700 07010KT P6SM SCT100=



000
FTUS43 KDDC 162300
TAFGCK
TAF
KGCK 162320Z 1700/1724 36017G23KT P6SM FEW120 BKN200
     FM170500 03010KT P6SM OVC100
     FM170800 02012KT 5SM -SHRA BKN050
     FM171700 10010KT P6SM SCT100=



000
FTUS43 KDDC 162300
TAFHYS
TAF
KHYS 162320Z 1700/1724 35019G27KT P6SM FEW070 BKN200
     FM170800 04010KT P6SM BKN100
     FM171700 07010KT P6SM SCT100=



000
FTUS43 KDDC 162300
TAFDDC
TAF
KDDC 162320Z 1700/1724 36013G20KT P6SM FEW150 BKN250
     FM170800 03010KT P6SM OVC060
     FM171000 02012KT 6SM -SHRA BKN050
     FM171700 09009KT P6SM OVC100=



000
FTUS43 KDDC 161700
TAFHYS
TAF
KHYS 161720Z 1618/1718 34015G25KT P6SM SCT250
     FM170000 03012KT P6SM SCT250
     FM170800 04010KT P6SM BKN100
     FM171700 06010KT P6SM SCT100=



000
FTUS43 KDDC 161700
TAFDDC
TAF
KDDC 161720Z 1618/1718 34012G22KT P6SM SCT250
     FM170000 02012KT P6SM SCT250
     FM170800 04010KT P6SM OVC050
     FM171700 09009KT P6SM OVC100=



000
FTUS43 KDDC 161700
TAFGCK
TAF
KGCK 161720Z 1618/1718 36020G27KT P6SM SCT250
     FM170000 03012KT P6SM SCT250
     FM170500 04010KT P6SM OVC100
     FM171700 10010KT P6SM SCT100=



000
FTUS43 KDDC 161100
TAFDDC
TAF
KDDC 161123Z 1612/1712 20018G28KT P6SM SKC
     FM161600 01016G26KT P6SM SKC=



000
FTUS43 KDDC 161100
TAFGCK
TAF
KGCK 161123Z 1612/1712 20012KT P6SM SKC
     FM161500 01018G28KT P6SM SKC=



000
FTUS43 KDDC 161100
TAFHYS
TAF
KHYS 161123Z 1612/1712 20012G20KT P6SM SKC
     FM161600 34014G24KT P6SM SKC
     FM170100 03012KT P6SM SKC=



000
FTUS43 KDDC 160500
TAFHYS
TAF
KHYS 160520Z 1606/1706 17018G25KT P6SM SCT250
     FM161100 22012KT P6SM SCT250
     FM161600 34014KT P6SM SCT250
     FM170100 03010KT P6SM SCT250=



000
FTUS43 KDDC 160500
TAFGCK
TAF
KGCK 160520Z 1606/1706 17015KT P6SM SCT250
     FM161100 23012KT P6SM SCT250
     FM161500 01014KT P6SM SCT250=



000
FTUS43 KDDC 160500
TAFDDC
TAF
KDDC 160520Z 1606/1706 17020G28KT P6SM SCT250
     FM161100 23012KT P6SM SCT250
     FM161600 01014KT P6SM SCT250=



000
FTUS43 KDDC 152300
TAFGCK
TAF
KGCK 152320Z 1600/1624 18015G23KT P6SM BKN250
     FM161000 20012KT P6SM SCT250
     FM161500 35018G26KT P6SM FEW250=



000
FTUS43 KDDC 152300
TAFHYS
TAF
KHYS 152320Z 1600/1624 18015G23KT P6SM BKN250
     FM161100 20012KT P6SM SCT250
     FM161500 35018G26KT P6SM FEW250=



000
FTUS43 KDDC 152300
TAFDDC
TAF
KDDC 152320Z 1600/1624 18015G23KT P6SM BKN250
     FM161100 20012KT P6SM SCT250
     FM161500 35018G26KT P6SM FEW250=



000
FTUS43 KDDC 151700
TAFDDC
TAF
KDDC 151720Z 1518/1618 22017G27KT P6SM SKC
     FM160100 19012KT P6SM SKC
     FM160400 18015G20KT P6SM SKC
     FM161600 36020G30KT P6SM FEW250=



000
FTUS43 KDDC 151700
TAFGCK
TAF
KGCK 151720Z 1518/1618 22017G27KT P6SM SKC
     FM160000 19012KT P6SM SKC
     FM160500 17015G20KT P6SM SKC
     FM161500 36020G30KT P6SM FEW250=



000
FTUS43 KDDC 151700
TAFHYS
TAF
KHYS 151720Z 1518/1618 22015G20KT P6SM SKC
     FM160100 19012KT P6SM SKC
     FM160500 17015G20KT P6SM SKC
     FM161500 36020G30KT P6SM FEW250=



000
FTUS43 KDDC 151100
TAFGCK
TAF
KGCK 151120Z 1512/1612 24008KT P6SM SKC
     FM151400 22013KT P6SM SKC
     FM151700 22020G29KT P6SM SKC
     FM160000 17015KT P6SM SKC=



000
FTUS43 KDDC 151100
TAFHYS
TAF
KHYS 151120Z 1512/1612 VRB06KT P6SM SKC
     FM151400 22013KT P6SM SKC
     FM151700 22020G29KT P6SM SKC
     FM160000 17015KT P6SM SKC=



000
FTUS43 KDDC 151100
TAFDDC
TAF
KDDC 151120Z 1512/1612 24008KT P6SM SKC
     FM151400 22013KT P6SM SKC
     FM151700 22020G29KT P6SM SKC
     FM160000 17015KT P6SM SKC=



    US Dept of Commerce
    National Oceanic and Atmospheric Administration
    National Weather Service
    1325 East West Highway
    Silver Spring, MD 20910
    Page Author: NWS Internet Services Team
Disclaimer
Information Quality
Credits
Glossary
Privacy Policy
Freedom of Information Act (FOIA)
About Us
Career Opportunities